Time,TemperatureF,DewpointF,PressureIn,WindDirection,WindDirectionDegrees,WindSpeedMPH,WindSpeedGustMPH,Humidity,HourlyPrecipIn,Conditions,Clouds,dailyrainin,SoftwareType,DateUTC
2015-09-01 00:02:00,72.0,68.5,30.00,SSE,147,5.0,7.0,89,0.00,,,0.00,meteohub,2015-09-01 05:02:00,
2015-09-01 00:07:00,72.0,68.5,30.00,SSE,158,6.0,7.0,89,0.00,,,0.00,meteohub,2015-09-01 05:07:00,
2015-09-01 00:12:00,71.8,68.4,30.00,SSW,193,1.0,7.0,89,0.00,,,0.00,meteohub,2015-09-01 05:12:00,
2015-09-01 00:17:00,71.8,68.4,30.00,SSE,152,0.0,7.0,89,0.00,,,0.00,meteohub,2015-09-01 05:17:00,
2015-09-01 00:22:00,71.8,68.7,30.01,SSE,147,1.0,7.0,90,0.00,,,0.00,meteohub,2015-09-01 05:22:00,
2015-09-01 00:27:00,71.4,68.4,30.00,SSE,161,4.0,7.0,90,0.00,,,0.00,meteohub,2015-09-01 05:27:00,
2015-09-01 00:32:00,71.4,68.4,30.00,SSE,158,1.0,7.0,90,0.00,,,0.00,meteohub,2015-09-01 05:32:00,
2015-09-01 00:37:00,71.2,68.2,30.00,SSE,158,0.0,7.0,90,0.00,,,0.00,meteohub,2015-09-01 05:37:00,
2015-09-01 00:42:00,71.2,68.5,30.01,SSE,161,5.0,7.0,91,0.00,,,0.00,meteohub,2015-09-01 05:42:00,
2015-09-01 00:47:00,71.2,68.5,30.00,SSE,153,5.0,8.0,91,0.00,,,0.00,meteohub,2015-09-01 05:47:00,
2015-09-01 00:52:00,71.2,68.2,30.00,South,170,3.0,8.0,90,0.00,,,0.00,meteohub,2015-09-01 05:52:00,
2015-09-01 00:57:00,71.2,68.2,30.01,SSE,157,4.0,8.0,90,0.00,,,0.00,meteohub,2015-09-01 05:57:00,
2015-09-01 01:02:00,71.2,68.2,30.00,SSE,149,0.0,8.0,90,0.00,,,0.00,meteohub,2015-09-01 06:02:00,
2015-09-01 01:07:00,71.1,68.0,30.00,SSE,160,6.0,8.0,90,0.00,,,0.00,meteohub,2015-09-01 06:07:00,
2015-09-01 01:12:00,71.1,68.0,30.00,South,172,5.0,8.0,90,0.00,,,0.00,meteohub,2015-09-01 06:12:00,
2015-09-01 01:17:00,70.9,68.2,30.00,SE,143,5.0,8.0,91,0.00,,,0.00,meteohub,2015-09-01 06:17:00,
2015-09-01 01:22:00,70.9,68.2,30.00,SSE,162,3.0,8.0,91,0.00,,,0.00,meteohub,2015-09-01 06:22:00,
2015-09-01 01:27:00,70.9,68.2,30.00,SSE,163,3.0,7.0,91,0.00,,,0.00,meteohub,2015-09-01 06:27:00,
2015-09-01 01:32:00,70.7,68.0,30.00,SSE,150,0.0,6.0,91,0.00,,,0.00,meteohub,2015-09-01 06:32:00,
2015-09-01 01:37:00,70.9,68.2,30.00,SSE,157,2.0,7.0,91,0.00,,,0.00,meteohub,2015-09-01 06:37:00,
2015-09-01 01:42:00,70.7,68.0,30.00,South,187,0.0,7.0,91,0.00,,,0.00,meteohub,2015-09-01 06:42:00,
2015-09-01 01:47:00,70.7,68.0,30.00,South,177,1.0,7.0,91,0.00,,,0.00,meteohub,2015-09-01 06:47:00,
2015-09-01 01:52:00,70.7,68.0,30.00,SSE,150,0.0,7.0,91,0.00,,,0.00,meteohub,2015-09-01 06:52:00,
2015-09-01 01:57:00,70.7,68.0,30.00,South,177,0.0,3.0,91,0.00,,,0.00,meteohub,2015-09-01 06:57:00,
2015-09-01 02:02:00,70.7,68.0,30.00,South,182,0.0,4.0,91,0.00,,,0.00,meteohub,2015-09-01 07:02:00,
2015-09-01 02:07:00,70.7,68.0,30.00,SE,140,0.0,5.0,91,0.00,,,0.00,meteohub,2015-09-01 07:07:00,
2015-09-01 02:12:00,70.7,68.0,30.00,SE,146,0.0,5.0,91,0.00,,,0.00,meteohub,2015-09-01 07:12:00,
2015-09-01 02:17:00,70.7,68.0,30.00,SSE,161,0.0,5.0,91,0.00,,,0.00,meteohub,2015-09-01 07:17:00,
2015-09-01 02:22:00,70.7,68.0,29.99,SE,136,0.0,6.0,91,0.00,,,0.00,meteohub,2015-09-01 07:22:00,
2015-09-01 02:27:00,70.7,68.0,29.99,SSE,150,4.0,6.0,91,0.00,,,0.00,meteohub,2015-09-01 07:27:00,
2015-09-01 02:32:00,70.7,68.0,29.99,SSE,160,0.0,6.0,91,0.00,,,0.00,meteohub,2015-09-01 07:32:00,
2015-09-01 02:37:00,70.7,68.0,29.99,South,182,0.0,5.0,91,0.00,,,0.00,meteohub,2015-09-01 07:37:00,
2015-09-01 02:42:00,70.7,68.0,29.99,SSW,203,0.0,5.0,91,0.00,,,0.00,meteohub,2015-09-01 07:42:00,
2015-09-01 02:47:00,70.9,68.2,29.99,SSE,150,1.0,5.0,91,0.00,,,0.00,meteohub,2015-09-01 07:47:00,
2015-09-01 02:52:00,70.9,68.4,29.99,SSW,208,0.0,3.0,92,0.00,,,0.00,meteohub,2015-09-01 07:52:00,
2015-09-01 02:57:00,70.9,68.4,29.99,SE,135,0.0,4.0,92,0.00,,,0.00,meteohub,2015-09-01 07:57:00,
2015-09-01 03:02:00,70.9,68.4,29.99,SSE,151,0.0,5.0,92,0.00,,,0.00,meteohub,2015-09-01 08:02:00,
2015-09-01 03:07:00,70.9,68.4,29.99,South,191,3.0,6.0,92,0.00,,,0.00,meteohub,2015-09-01 08:07:00,
2015-09-01 03:12:00,70.9,68.4,29.99,SE,146,1.0,6.0,92,0.00,,,0.00,meteohub,2015-09-01 08:12:00,
2015-09-01 03:17:00,70.9,68.4,29.99,South,177,4.0,6.0,92,0.00,,,0.00,meteohub,2015-09-01 08:17:00,
2015-09-01 03:22:00,70.9,68.4,29.99,SSE,158,5.0,6.0,92,0.00,,,0.00,meteohub,2015-09-01 08:22:00,
2015-09-01 03:27:00,70.7,68.2,29.99,SSE,152,0.0,6.0,92,0.00,,,0.00,meteohub,2015-09-01 08:27:00,
2015-09-01 03:32:00,70.7,68.2,29.99,SSE,147,0.0,7.0,92,0.00,,,0.00,meteohub,2015-09-01 08:32:00,
2015-09-01 03:37:00,70.7,68.2,29.99,South,191,1.0,7.0,92,0.00,,,0.00,meteohub,2015-09-01 08:37:00,
2015-09-01 03:42:00,70.7,68.2,29.99,SSE,158,3.0,7.0,92,0.00,,,0.00,meteohub,2015-09-01 08:42:00,
2015-09-01 03:47:00,70.7,68.2,29.99,SSE,153,0.0,7.0,92,0.00,,,0.00,meteohub,2015-09-01 08:47:00,
2015-09-01 03:52:00,70.7,68.2,29.99,SSE,164,2.0,6.0,92,0.00,,,0.00,meteohub,2015-09-01 08:52:00,
2015-09-01 03:57:00,70.7,68.2,29.99,SSE,158,3.0,5.0,92,0.00,,,0.00,meteohub,2015-09-01 08:57:00,
2015-09-01 04:02:00,70.5,68.0,29.98,SSE,164,0.0,6.0,92,0.00,,,0.00,meteohub,2015-09-01 09:02:00,
2015-09-01 04:07:00,70.5,68.0,29.98,SSE,160,0.0,6.0,92,0.00,,,0.00,meteohub,2015-09-01 09:07:00,
2015-09-01 04:12:00,70.5,68.0,29.98,South,173,5.0,6.0,92,0.00,,,0.00,meteohub,2015-09-01 09:12:00,
2015-09-01 04:17:00,70.5,68.0,29.98,SSE,147,0.0,7.0,92,0.00,,,0.00,meteohub,2015-09-01 09:17:00,
2015-09-01 04:22:00,70.5,68.0,29.98,SSE,154,4.0,7.0,92,0.00,,,0.00,meteohub,2015-09-01 09:22:00,
2015-09-01 04:27:00,70.5,68.0,29.98,SSE,153,0.0,7.0,92,0.00,,,0.00,meteohub,2015-09-01 09:27:00,
2015-09-01 04:32:00,70.5,68.0,29.98,SSE,147,4.0,6.0,92,0.00,,,0.00,meteohub,2015-09-01 09:32:00,
2015-09-01 04:37:00,70.5,68.0,29.98,SSE,160,0.0,6.0,92,0.00,,,0.00,meteohub,2015-09-01 09:37:00,
2015-09-01 04:42:00,70.5,68.4,29.98,SSE,151,4.0,6.0,93,0.00,,,0.00,meteohub,2015-09-01 09:42:00,
2015-09-01 04:47:00,70.5,68.4,29.98,South,170,2.0,7.0,93,0.00,,,0.00,meteohub,2015-09-01 09:47:00,
2015-09-01 04:52:00,70.5,68.4,29.98,SSE,149,2.0,7.0,93,0.00,,,0.00,meteohub,2015-09-01 09:52:00,
2015-09-01 04:57:00,70.5,68.4,29.98,SSE,153,1.0,7.0,93,0.00,,,0.00,meteohub,2015-09-01 09:57:00,